Euship II — OMGQ — position and weather

sailwx.info

Track history (hours):
 
Tides and Currents Weather Stations Pressure Air Temp Water Temp Dewpoint Dewpoint Depression Visibility Wind Speed Wind Dir Waves Ship Positions

Euship II

Last reported at 2018-Apr-05 19:36 UTC. Time now 2018-Apr-23 04:00 UTC.
Position N 44°21' E 028°01'.
Warning: this ship's position is 17 days out of date.

Length 86 m; draft 2.3 m.

Type: Wing in ground effect craft. MMSI: 267210039.

Date/timePositionNaut miles runAvg speedWind from/ knotsBaromVisibWave heightAir tempDewpointWater temp
2018-Apr-05 19:36N 44°21' E 028°01'0 0.0
2018-Apr-05 19:11N 44°21' E 028°01'0 0.0
2018-Apr-05 18:58N 44°21' E 028°01'0 0.0
2018-Apr-05 18:28N 44°21' E 028°01'8 0.8
2018-Apr-05 07:45N 44°16' E 028°11'2 6.8
2018-Apr-05 07:29N 44°15' E 028°13'3 6.9
2018-Apr-05 07:00N 44°15' E 028°18'3 6.4
2018-Apr-05 06:30N 44°14' E 028°22'10 6.2
2018-Apr-05 04:49N 44°06' E 028°31'2 6.7
2018-Apr-05 04:30N 44°06' E 028°34'2 4.2
2018-Apr-05 04:00N 44°06' E 028°37'1 1.7
2018-Apr-05 03:31N 44°06' E 028°38'1 2.7
2018-Apr-05 03:00N 44°07' E 028°39'0 0.0
2018-Apr-05 02:30N 44°07' E 028°39'0 0.0
2018-Apr-05 02:00N 44°07' E 028°39'0 0.0
2018-Apr-05 01:30N 44°07' E 028°39'0 0.0
2018-Apr-05 01:01N 44°07' E 028°39'0 0.0
2018-Apr-05 00:30N 44°07' E 028°39'0 0.0
2018-Apr-05 00:00N 44°07' E 028°39'0 0.0
2018-Apr-04 23:30N 44°07' E 028°39'0 0.0
2018-Apr-04 23:00N 44°07' E 028°39'0 0.0
2018-Apr-04 22:30N 44°07' E 028°39'0 0.0
2018-Apr-04 22:01N 44°07' E 028°39'0 0.0
2018-Apr-04 21:30N 44°07' E 028°39'0 0.0
2018-Apr-04 21:01N 44°07' E 028°39'0 0.0
2018-Apr-04 20:00N 44°07' E 028°39'0 0.0
2018-Apr-04 19:30N 44°07' E 028°39'0 0.0
2018-Apr-04 19:00N 44°07' E 028°39'0 0.0
2018-Apr-04 18:30N 44°07' E 028°39'0 0.0
2018-Apr-04 18:00N 44°07' E 028°39'0 0.0
2018-Apr-04 17:30N 44°07' E 028°39'0 0.0
2018-Apr-04 17:00N 44°07' E 028°39'0 0.0
2018-Apr-04 16:30N 44°07' E 028°39'0 0.0
2018-Apr-04 16:00N 44°07' E 028°39'0 0.0
2018-Apr-04 15:30N 44°07' E 028°39'0 0.0
2018-Apr-04 15:00N 44°07' E 028°39'0 0.0
2018-Apr-04 14:30N 44°07' E 028°39'0 0.0
2018-Apr-04 14:01N 44°07' E 028°39'0 0.0
2018-Apr-04 13:30N 44°07' E 028°39'0 0.1
2018-Apr-04 13:00N 44°07' E 028°39'0 0.2
2018-Apr-04 12:30N 44°07' E 028°39'0 0.2
2018-Apr-04 12:00N 44°07' E 028°39'0 0.1
2018-Apr-04 11:30N 44°07' E 028°39'0 1.0
2018-Apr-04 11:01N 44°07' E 028°39'0 0.0
2018-Apr-04 10:30N 44°07' E 028°39'0 0.0
2018-Apr-04 10:01N 44°07' E 028°39'0 0.0
2018-Apr-04 09:30N 44°07' E 028°39'0 0.0
2018-Apr-04 09:01N 44°07' E 028°39'0 0.0
2018-Apr-04 08:30N 44°07' E 028°39'0 0.0
2018-Apr-04 08:00N 44°07' E 028°39'0 0.0
2018-Apr-04 07:30N 44°07' E 028°39'0 0.0
2018-Apr-04 07:01N 44°07' E 028°39'0 0.0
2018-Apr-04 06:30N 44°07' E 028°39'0 0.0
2018-Apr-04 06:00N 44°07' E 028°39'0 0.0
2018-Apr-04 05:30N 44°07' E 028°39'0 0.0
2018-Apr-04 05:01N 44°07' E 028°39'0 0.0
2018-Apr-04 04:30N 44°07' E 028°39'0 0.0
2018-Apr-04 04:00N 44°07' E 028°39'0 0.0
2018-Apr-04 03:31N 44°07' E 028°39'0 0.0
2018-Apr-04 03:00N 44°07' E 028°39'0 0.0
2018-Apr-04 02:31N 44°07' E 028°39'0 0.0
2018-Apr-04 02:00N 44°07' E 028°39'0 0.0
2018-Apr-04 01:31N 44°07' E 028°39'0 0.0
2018-Apr-04 01:00N 44°07' E 028°39'0 0.0
2018-Apr-04 00:30N 44°07' E 028°39'0 0.0
2018-Apr-04 00:00N 44°07' E 028°39'0 0.0
2018-Apr-03 23:30N 44°07' E 028°39'0 0.0
2018-Apr-03 23:01N 44°07' E 028°39'0 0.0
2018-Apr-03 22:30N 44°07' E 028°39'0 0.0
2018-Apr-03 22:00N 44°07' E 028°39'0 0.0
2018-Apr-03 21:30N 44°07' E 028°39'0 0.0
2018-Apr-03 21:00N 44°07' E 028°39'0 0.0
2018-Apr-03 20:31N 44°07' E 028°39'0 0.0
2018-Apr-03 20:00N 44°07' E 028°39'0 0.0
2018-Apr-03 19:30N 44°07' E 028°39'0 0.0
2018-Apr-03 19:00N 44°07' E 028°39'0 0.0
2018-Apr-03 18:30N 44°07' E 028°39'0 0.0
2018-Apr-03 18:00N 44°07' E 028°39'0 0.0
2018-Apr-03 17:30N 44°07' E 028°39'0 0.0
2018-Apr-03 17:00N 44°07' E 028°39'0 0.0
2018-Apr-03 16:30N 44°07' E 028°39'0 0.0
2018-Apr-03 16:00N 44°07' E 028°39'0 0.0
2018-Apr-03 15:30N 44°07' E 028°39'0 0.0
2018-Apr-03 15:00N 44°07' E 028°39'0 0.0
2018-Apr-03 14:31N 44°07' E 028°39'0 0.8
2018-Apr-03 14:00N 44°07' E 028°39'2 4.6
2018-Apr-03 13:30N 44°10' E 028°39'0 0.1
2018-Apr-03 13:00N 44°10' E 028°39'0 0.0
2018-Apr-03 12:30N 44°10' E 028°39'0 0.0
2018-Apr-03 12:01N 44°10' E 028°39'0 0.0
2018-Apr-03 11:30N 44°10' E 028°39'0 0.0
2018-Apr-03 11:00N 44°10' E 028°39'0 0.0
2018-Apr-03 10:30N 44°10' E 028°39'0 0.0
2018-Apr-03 10:01N 44°10' E 028°39'0 0.0
2018-Apr-03 09:30N 44°10' E 028°39'0 0.0
2018-Apr-03 09:00N 44°10' E 028°39'0 0.0
2018-Apr-03 08:30N 44°10' E 028°39'0 0.0
2018-Apr-03 08:00N 44°10' E 028°39'0 0.0
2018-Apr-03 07:30N 44°10' E 028°39'0 0.0
2018-Apr-03 07:00N 44°10' E 028°39'0 0.0
2018-Apr-03 06:30N 44°10' E 028°39'0 0.0
2018-Apr-03 06:00N 44°10' E 028°39'0 0.0
2018-Apr-03 05:30N 44°10' E 028°39'0 0.0
2018-Apr-03 05:00N 44°10' E 028°39'0 0.0
2018-Apr-03 04:30N 44°10' E 028°39'0 0.0
2018-Apr-03 04:00N 44°10' E 028°39'0 0.0
2018-Apr-03 03:30N 44°10' E 028°39'0 0.0
2018-Apr-03 03:00N 44°10' E 028°39'0 0.0
2018-Apr-03 02:30N 44°10' E 028°39'0 0.0
2018-Apr-03 02:00N 44°10' E 028°39'0 0.0
2018-Apr-03 01:30N 44°10' E 028°39'0 0.0
2018-Apr-03 01:01N 44°10' E 028°39'0 0.0
2018-Apr-03 00:30N 44°10' E 028°39'0 0.0
2018-Apr-03 00:01N 44°10' E 028°39'0 0.0
2018-Apr-02 23:31N 44°10' E 028°39'0 0.0
2018-Apr-02 23:00N 44°10' E 028°39'0 0.0
2018-Apr-02 22:30N 44°10' E 028°39'0 0.0
2018-Apr-02 22:00N 44°10' E 028°39'0 0.0
2018-Apr-02 21:31N 44°10' E 028°39'0 0.0
2018-Apr-02 21:00N 44°10' E 028°39'0 0.0
2018-Apr-02 20:30N 44°10' E 028°39'0 0.0
2018-Apr-02 20:00N 44°10' E 028°39'0 0.0
2018-Apr-02 19:30N 44°10' E 028°39'0 0.0
2018-Apr-02 19:01N 44°10' E 028°39'0 0.1
2018-Apr-02 18:30N 44°10' E 028°39'0 0.1
2018-Apr-02 18:00N 44°10' E 028°39'1 2.5
2018-Apr-02 17:30N 44°08' E 028°39'1 1.8
2018-Apr-02 17:01N 44°07' E 028°39'2 3.2
2018-Apr-02 16:30N 44°06' E 028°38'1 1.5
2018-Apr-02 16:00N 44°06' E 028°37'0 0.0
2018-Apr-02 15:30N 44°06' E 028°37'0 0.1
2018-Apr-02 15:00N 44°06' E 028°37'2 4.0
2018-Apr-02 14:30N 44°06' E 028°34'7 4.7
2018-Apr-02 13:02N 44°09' E 028°26'0 5.6
2018-Apr-02 13:00N 44°09' E 028°26'3 5.4
2018-Apr-02 12:23N 44°12' E 028°23'2 5.5
2018-Apr-02 12:00N 44°14' E 028°22'3 5.2
2018-Apr-02 11:30N 44°15' E 028°18'3 5.6
2018-Apr-02 11:00N 44°15' E 028°15'3 5.5
2018-Apr-02 10:30N 44°16' E 028°11'3 5.6
2018-Apr-02 10:00N 44°16' E 028°07'  
2018-Mar-27 09:03N 44°31' E 022°13'0 5.1
2018-Mar-27 09:00N 44°31' E 022°12'3 6.8
2018-Mar-27 08:31N 44°28' E 022°09'4 7.1
2018-Mar-27 08:00N 44°30' E 022°05'4 7.5
2018-Mar-27 07:31N 44°33' E 022°02'4 8.0
2018-Mar-27 06:57N 44°37' E 022°00'18 1.7
2018-Mar-26 20:34N 44°44' E 021°36'0 0.0
2018-Mar-26 20:31N 44°44' E 021°36'  
Track history (hours):
 
Tides and Currents Weather Stations Pressure Air Temp Water Temp Dewpoint Dewpoint Depression Visibility Wind Speed Wind Dir Waves Ship Positions

Euship II

Last reported at 2018-Apr-05 19:36 UTC. Time now 2018-Apr-23 04:00 UTC.
Position N 44°21' E 028°01'.
Warning: this ship's position is 17 days out of date.

Length 86 m; draft 2.3 m.

Type: Wing in ground effect craft. MMSI: 267210039.

Date/timePositionNaut miles runAvg speedWind from/ knotsBaromVisibWave heightAir tempDewpointWater temp
2018-Apr-05 19:36N 44°21' E 028°01'0 0.0
2018-Apr-05 19:11N 44°21' E 028°01'0 0.0
2018-Apr-05 18:58N 44°21' E 028°01'0 0.0
2018-Apr-05 18:28N 44°21' E 028°01'8 0.8
2018-Apr-05 07:45N 44°16' E 028°11'2 6.8
2018-Apr-05 07:29N 44°15' E 028°13'3 6.9
2018-Apr-05 07:00N 44°15' E 028°18'3 6.4
2018-Apr-05 06:30N 44°14' E 028°22'10 6.2
2018-Apr-05 04:49N 44°06' E 028°31'2 6.7
2018-Apr-05 04:30N 44°06' E 028°34'2 4.2
2018-Apr-05 04:00N 44°06' E 028°37'1 1.7
2018-Apr-05 03:31N 44°06' E 028°38'1 2.7
2018-Apr-05 03:00N 44°07' E 028°39'0 0.0
2018-Apr-05 02:30N 44°07' E 028°39'0 0.0
2018-Apr-05 02:00N 44°07' E 028°39'0 0.0
2018-Apr-05 01:30N 44°07' E 028°39'0 0.0
2018-Apr-05 01:01N 44°07' E 028°39'0 0.0
2018-Apr-05 00:30N 44°07' E 028°39'0 0.0
2018-Apr-05 00:00N 44°07' E 028°39'0 0.0
2018-Apr-04 23:30N 44°07' E 028°39'0 0.0
2018-Apr-04 23:00N 44°07' E 028°39'0 0.0
2018-Apr-04 22:30N 44°07' E 028°39'0 0.0
2018-Apr-04 22:01N 44°07' E 028°39'0 0.0
2018-Apr-04 21:30N 44°07' E 028°39'0 0.0
2018-Apr-04 21:01N 44°07' E 028°39'0 0.0
2018-Apr-04 20:00N 44°07' E 028°39'0 0.0
2018-Apr-04 19:30N 44°07' E 028°39'0 0.0
2018-Apr-04 19:00N 44°07' E 028°39'0 0.0
2018-Apr-04 18:30N 44°07' E 028°39'0 0.0
2018-Apr-04 18:00N 44°07' E 028°39'0 0.0
2018-Apr-04 17:30N 44°07' E 028°39'0 0.0
2018-Apr-04 17:00N 44°07' E 028°39'0 0.0
2018-Apr-04 16:30N 44°07' E 028°39'0 0.0
2018-Apr-04 16:00N 44°07' E 028°39'0 0.0
2018-Apr-04 15:30N 44°07' E 028°39'0 0.0
2018-Apr-04 15:00N 44°07' E 028°39'0 0.0
2018-Apr-04 14:30N 44°07' E 028°39'0 0.0
2018-Apr-04 14:01N 44°07' E 028°39'0 0.0
2018-Apr-04 13:30N 44°07' E 028°39'0 0.1
2018-Apr-04 13:00N 44°07' E 028°39'0 0.2
2018-Apr-04 12:30N 44°07' E 028°39'0 0.2
2018-Apr-04 12:00N 44°07' E 028°39'0 0.1
2018-Apr-04 11:30N 44°07' E 028°39'0 1.0
2018-Apr-04 11:01N 44°07' E 028°39'0 0.0
2018-Apr-04 10:30N 44°07' E 028°39'0 0.0
2018-Apr-04 10:01N 44°07' E 028°39'0 0.0
2018-Apr-04 09:30N 44°07' E 028°39'0 0.0
2018-Apr-04 09:01N 44°07' E 028°39'0 0.0
2018-Apr-04 08:30N 44°07' E 028°39'0 0.0
2018-Apr-04 08:00N 44°07' E 028°39'0 0.0
2018-Apr-04 07:30N 44°07' E 028°39'0 0.0
2018-Apr-04 07:01N 44°07' E 028°39'0 0.0
2018-Apr-04 06:30N 44°07' E 028°39'0 0.0
2018-Apr-04 06:00N 44°07' E 028°39'0 0.0
2018-Apr-04 05:30N 44°07' E 028°39'0 0.0
2018-Apr-04 05:01N 44°07' E 028°39'0 0.0
2018-Apr-04 04:30N 44°07' E 028°39'0 0.0
2018-Apr-04 04:00N 44°07' E 028°39'0 0.0
2018-Apr-04 03:31N 44°07' E 028°39'0 0.0
2018-Apr-04 03:00N 44°07' E 028°39'0 0.0
2018-Apr-04 02:31N 44°07' E 028°39'0 0.0
2018-Apr-04 02:00N 44°07' E 028°39'0 0.0
2018-Apr-04 01:31N 44°07' E 028°39'0 0.0
2018-Apr-04 01:00N 44°07' E 028°39'0 0.0
2018-Apr-04 00:30N 44°07' E 028°39'0 0.0
2018-Apr-04 00:00N 44°07' E 028°39'0 0.0
2018-Apr-03 23:30N 44°07' E 028°39'0 0.0
2018-Apr-03 23:01N 44°07' E 028°39'0 0.0
2018-Apr-03 22:30N 44°07' E 028°39'0 0.0
2018-Apr-03 22:00N 44°07' E 028°39'0 0.0
2018-Apr-03 21:30N 44°07' E 028°39'0 0.0
2018-Apr-03 21:00N 44°07' E 028°39'0 0.0
2018-Apr-03 20:31N 44°07' E 028°39'0 0.0
2018-Apr-03 20:00N 44°07' E 028°39'0 0.0
2018-Apr-03 19:30N 44°07' E 028°39'0 0.0
2018-Apr-03 19:00N 44°07' E 028°39'0 0.0
2018-Apr-03 18:30N 44°07' E 028°39'0 0.0
2018-Apr-03 18:00N 44°07' E 028°39'0 0.0
2018-Apr-03 17:30N 44°07' E 028°39'0 0.0
2018-Apr-03 17:00N 44°07' E 028°39'0 0.0
2018-Apr-03 16:30N 44°07' E 028°39'0 0.0
2018-Apr-03 16:00N 44°07' E 028°39'0 0.0
2018-Apr-03 15:30N 44°07' E 028°39'0 0.0
2018-Apr-03 15:00N 44°07' E 028°39'0 0.0
2018-Apr-03 14:31N 44°07' E 028°39'0 0.8
2018-Apr-03 14:00N 44°07' E 028°39'2 4.6
2018-Apr-03 13:30N 44°10' E 028°39'0 0.1
2018-Apr-03 13:00N 44°10' E 028°39'0 0.0
2018-Apr-03 12:30N 44°10' E 028°39'0 0.0
2018-Apr-03 12:01N 44°10' E 028°39'0 0.0
2018-Apr-03 11:30N 44°10' E 028°39'0 0.0
2018-Apr-03 11:00N 44°10' E 028°39'0 0.0
2018-Apr-03 10:30N 44°10' E 028°39'0 0.0
2018-Apr-03 10:01N 44°10' E 028°39'0 0.0
2018-Apr-03 09:30N 44°10' E 028°39'0 0.0
2018-Apr-03 09:00N 44°10' E 028°39'0 0.0
2018-Apr-03 08:30N 44°10' E 028°39'0 0.0
2018-Apr-03 08:00N 44°10' E 028°39'0 0.0
2018-Apr-03 07:30N 44°10' E 028°39'0 0.0
2018-Apr-03 07:00N 44°10' E 028°39'0 0.0
2018-Apr-03 06:30N 44°10' E 028°39'0 0.0
2018-Apr-03 06:00N 44°10' E 028°39'0 0.0
2018-Apr-03 05:30N 44°10' E 028°39'0 0.0
2018-Apr-03 05:00N 44°10' E 028°39'0 0.0
2018-Apr-03 04:30N 44°10' E 028°39'0 0.0
2018-Apr-03 04:00N 44°10' E 028°39'0 0.0
2018-Apr-03 03:30N 44°10' E 028°39'0 0.0
2018-Apr-03 03:00N 44°10' E 028°39'0 0.0
2018-Apr-03 02:30N 44°10' E 028°39'0 0.0
2018-Apr-03 02:00N 44°10' E 028°39'0 0.0
2018-Apr-03 01:30N 44°10' E 028°39'0 0.0
2018-Apr-03 01:01N 44°10' E 028°39'0 0.0
2018-Apr-03 00:30N 44°10' E 028°39'0 0.0
2018-Apr-03 00:01N 44°10' E 028°39'0 0.0
2018-Apr-02 23:31N 44°10' E 028°39'0 0.0
2018-Apr-02 23:00N 44°10' E 028°39'0 0.0
2018-Apr-02 22:30N 44°10' E 028°39'0 0.0
2018-Apr-02 22:00N 44°10' E 028°39'0 0.0
2018-Apr-02 21:31N 44°10' E 028°39'0 0.0
2018-Apr-02 21:00N 44°10' E 028°39'0 0.0
2018-Apr-02 20:30N 44°10' E 028°39'0 0.0
2018-Apr-02 20:00N 44°10' E 028°39'0 0.0
2018-Apr-02 19:30N 44°10' E 028°39'0 0.0
2018-Apr-02 19:01N 44°10' E 028°39'0 0.1
2018-Apr-02 18:30N 44°10' E 028°39'0 0.1
2018-Apr-02 18:00N 44°10' E 028°39'1 2.5
2018-Apr-02 17:30N 44°08' E 028°39'1 1.8
2018-Apr-02 17:01N 44°07' E 028°39'2 3.2
2018-Apr-02 16:30N 44°06' E 028°38'1 1.5
2018-Apr-02 16:00N 44°06' E 028°37'0 0.0
2018-Apr-02 15:30N 44°06' E 028°37'0 0.1
2018-Apr-02 15:00N 44°06' E 028°37'2 4.0
2018-Apr-02 14:30N 44°06' E 028°34'7 4.7
2018-Apr-02 13:02N 44°09' E 028°26'0 5.6
2018-Apr-02 13:00N 44°09' E 028°26'3 5.4
2018-Apr-02 12:23N 44°12' E 028°23'2 5.5
2018-Apr-02 12:00N 44°14' E 028°22'3 5.2
2018-Apr-02 11:30N 44°15' E 028°18'3 5.6
2018-Apr-02 11:00N 44°15' E 028°15'3 5.5
2018-Apr-02 10:30N 44°16' E 028°11'3 5.6
2018-Apr-02 10:00N 44°16' E 028°07'  
2018-Mar-27 09:03N 44°31' E 022°13'0 5.1
2018-Mar-27 09:00N 44°31' E 022°12'3 6.8
2018-Mar-27 08:31N 44°28' E 022°09'4 7.1
2018-Mar-27 08:00N 44°30' E 022°05'4 7.5
2018-Mar-27 07:31N 44°33' E 022°02'4 8.0
2018-Mar-27 06:57N 44°37' E 022°00'18 1.7
2018-Mar-26 20:34N 44°44' E 021°36'0 0.0
2018-Mar-26 20:31N 44°44' E 021°36'  

Dump ship's entire track history